sensor_id;sensor_type;location;lat;lon;timestamp;P1;durP1;ratioP1;P2;durP2;ratioP2
24467;SDS011;12634;50.852;5.676;2023-07-31T00:00:19;8.48;;;3.17;;
24467;SDS011;12634;50.852;5.676;2023-07-31T00:02:46;9.10;;;3.30;;
24467;SDS011;12634;50.852;5.676;2023-07-31T00:05:13;8.88;;;3.72;;
24467;SDS011;12634;50.852;5.676;2023-07-31T00:07:43;9.18;;;3.00;;
24467;SDS011;12634;50.852;5.676;2023-07-31T00:10:10;9.82;;;3.15;;
24467;SDS011;12634;50.852;5.676;2023-07-31T00:12:37;6.65;;;2.78;;
24467;SDS011;12634;50.852;5.676;2023-07-31T00:15:06;10.82;;;3.08;;
24467;SDS011;12634;50.852;5.676;2023-07-31T00:17:33;10.18;;;3.45;;
24467;SDS011;12634;50.852;5.676;2023-07-31T00:20:01;7.22;;;2.65;;
24467;SDS011;12634;50.852;5.676;2023-07-31T00:22:28;8.15;;;2.70;;
24467;SDS011;12634;50.852;5.676;2023-07-31T00:24:57;9.80;;;3.35;;
24467;SDS011;12634;50.852;5.676;2023-07-31T00:27:25;5.82;;;2.78;;
24467;SDS011;12634;50.852;5.676;2023-07-31T00:29:52;8.98;;;3.30;;
24467;SDS011;12634;50.852;5.676;2023-07-31T00:32:19;12.10;;;3.53;;
24467;SDS011;12634;50.852;5.676;2023-07-31T00:34:46;12.95;;;3.63;;
24467;SDS011;12634;50.852;5.676;2023-07-31T00:37:14;8.32;;;3.00;;
24467;SDS011;12634;50.852;5.676;2023-07-31T00:39:41;11.70;;;3.33;;
24467;SDS011;12634;50.852;5.676;2023-07-31T00:42:10;7.13;;;2.70;;
24467;SDS011;12634;50.852;5.676;2023-07-31T00:44:37;8.77;;;3.28;;
24467;SDS011;12634;50.852;5.676;2023-07-31T00:47:04;8.35;;;3.00;;
24467;SDS011;12634;50.852;5.676;2023-07-31T00:49:32;8.23;;;3.08;;
24467;SDS011;12634;50.852;5.676;2023-07-31T00:51:59;9.60;;;3.30;;
24467;SDS011;12634;50.852;5.676;2023-07-31T00:54:27;5.88;;;2.85;;
24467;SDS011;12634;50.852;5.676;2023-07-31T00:56:55;8.35;;;3.10;;
24467;SDS011;12634;50.852;5.676;2023-07-31T00:59:24;11.15;;;3.72;;
24467;SDS011;12634;50.852;5.676;2023-07-31T01:01:51;7.35;;;3.40;;
24467;SDS011;12634;50.852;5.676;2023-07-31T01:04:18;9.52;;;3.25;;
24467;SDS011;12634;50.852;5.676;2023-07-31T01:06:48;8.05;;;2.95;;
24467;SDS011;12634;50.852;5.676;2023-07-31T01:09:27;8.10;;;3.58;;
24467;SDS011;12634;50.852;5.676;2023-07-31T01:12:01;5.50;;;3.80;;
24467;SDS011;12634;50.852;5.676;2023-07-31T01:14:31;8.98;;;3.33;;
24467;SDS011;12634;50.852;5.676;2023-07-31T01:16:58;6.88;;;3.10;;
24467;SDS011;12634;50.852;5.676;2023-07-31T01:19:25;5.32;;;3.03;;
24467;SDS011;12634;50.852;5.676;2023-07-31T01:22:02;8.48;;;3.20;;
24467;SDS011;12634;50.852;5.676;2023-07-31T01:24:47;9.07;;;3.10;;
24467;SDS011;12634;50.852;5.676;2023-07-31T01:27:24;9.30;;;2.88;;
24467;SDS011;12634;50.852;5.676;2023-07-31T01:29:58;8.50;;;3.65;;
24467;SDS011;12634;50.852;5.676;2023-07-31T01:32:35;8.15;;;2.78;;
24467;SDS011;12634;50.852;5.676;2023-07-31T01:35:06;8.55;;;3.40;;
24467;SDS011;12634;50.852;5.676;2023-07-31T01:37:34;7.65;;;3.22;;
24467;SDS011;12634;50.852;5.676;2023-07-31T01:40:01;8.60;;;3.50;;
24467;SDS011;12634;50.852;5.676;2023-07-31T01:42:30;6.15;;;3.20;;
24467;SDS011;12634;50.852;5.676;2023-07-31T01:44:57;9.20;;;3.30;;
24467;SDS011;12634;50.852;5.676;2023-07-31T01:47:24;7.38;;;3.33;;
24467;SDS011;12634;50.852;5.676;2023-07-31T01:49:51;7.95;;;3.63;;
24467;SDS011;12634;50.852;5.676;2023-07-31T01:52:19;7.65;;;3.20;;
24467;SDS011;12634;50.852;5.676;2023-07-31T01:54:46;8.07;;;3.90;;
24467;SDS011;12634;50.852;5.676;2023-07-31T01:57:13;7.43;;;3.53;;
24467;SDS011;12634;50.852;5.676;2023-07-31T01:59:42;10.57;;;3.85;;
24467;SDS011;12634;50.852;5.676;2023-07-31T02:02:09;9.32;;;3.72;;
24467;SDS011;12634;50.852;5.676;2023-07-31T02:04:36;9.70;;;3.80;;
24467;SDS011;12634;50.852;5.676;2023-07-31T02:07:05;7.95;;;3.28;;
24467;SDS011;12634;50.852;5.676;2023-07-31T02:09:32;13.20;;;3.88;;
24467;SDS011;12634;50.852;5.676;2023-07-31T02:11:59;6.97;;;3.15;;
24467;SDS011;12634;50.852;5.676;2023-07-31T02:14:26;9.88;;;3.72;;
24467;SDS011;12634;50.852;5.676;2023-07-31T02:16:55;8.85;;;3.78;;
24467;SDS011;12634;50.852;5.676;2023-07-31T02:19:22;9.77;;;3.58;;
24467;SDS011;12634;50.852;5.676;2023-07-31T02:21:49;8.75;;;3.67;;
24467;SDS011;12634;50.852;5.676;2023-07-31T02:24:16;9.82;;;3.65;;
24467;SDS011;12634;50.852;5.676;2023-07-31T02:26:43;9.60;;;4.10;;
24467;SDS011;12634;50.852;5.676;2023-07-31T02:29:10;9.60;;;3.65;;
24467;SDS011;12634;50.852;5.676;2023-07-31T02:31:38;6.05;;;3.00;;
24467;SDS011;12634;50.852;5.676;2023-07-31T02:34:06;6.75;;;3.13;;
24467;SDS011;12634;50.852;5.676;2023-07-31T02:36:33;7.78;;;3.85;;
24467;SDS011;12634;50.852;5.676;2023-07-31T02:39:01;5.68;;;3.35;;
24467;SDS011;12634;50.852;5.676;2023-07-31T02:41:28;10.82;;;3.92;;
24467;SDS011;12634;50.852;5.676;2023-07-31T02:43:55;8.40;;;3.50;;
24467;SDS011;12634;50.852;5.676;2023-07-31T02:46:22;7.88;;;3.65;;
24467;SDS011;12634;50.852;5.676;2023-07-31T02:48:50;8.75;;;3.78;;
24467;SDS011;12634;50.852;5.676;2023-07-31T02:51:18;6.65;;;3.58;;
24467;SDS011;12634;50.852;5.676;2023-07-31T02:53:46;9.48;;;3.72;;
24467;SDS011;12634;50.852;5.676;2023-07-31T02:56:14;7.57;;;3.60;;
24467;SDS011;12634;50.852;5.676;2023-07-31T02:58:42;7.32;;;3.58;;
24467;SDS011;12634;50.852;5.676;2023-07-31T03:01:09;7.03;;;4.43;;
24467;SDS011;12634;50.852;5.676;2023-07-31T03:03:36;10.93;;;3.88;;
24467;SDS011;12634;50.852;5.676;2023-07-31T03:06:03;6.32;;;3.70;;
24467;SDS011;12634;50.852;5.676;2023-07-31T03:08:32;8.75;;;4.13;;
24467;SDS011;12634;50.852;5.676;2023-07-31T03:10:59;7.43;;;3.80;;
24467;SDS011;12634;50.852;5.676;2023-07-31T03:13:26;8.75;;;4.22;;
24467;SDS011;12634;50.852;5.676;2023-07-31T03:15:53;8.38;;;4.13;;
24467;SDS011;12634;50.852;5.676;2023-07-31T03:18:20;7.80;;;3.42;;
24467;SDS011;12634;50.852;5.676;2023-07-31T03:20:47;6.32;;;3.35;;
24467;SDS011;12634;50.852;5.676;2023-07-31T03:23:15;5.70;;;3.13;;
24467;SDS011;12634;50.852;5.676;2023-07-31T03:25:56;7.68;;;3.30;;
24467;SDS011;12634;50.852;5.676;2023-07-31T03:28:23;7.00;;;3.47;;
24467;SDS011;12634;50.852;5.676;2023-07-31T03:30:51;4.93;;;3.15;;
24467;SDS011;12634;50.852;5.676;2023-07-31T03:33:18;7.85;;;3.22;;
24467;SDS011;12634;50.852;5.676;2023-07-31T03:35:45;7.90;;;3.17;;
24467;SDS011;12634;50.852;5.676;2023-07-31T03:38:12;6.15;;;3.20;;
24467;SDS011;12634;50.852;5.676;2023-07-31T03:40:40;6.70;;;3.42;;
24467;SDS011;12634;50.852;5.676;2023-07-31T03:43:08;7.22;;;3.67;;
24467;SDS011;12634;50.852;5.676;2023-07-31T03:45:35;9.85;;;2.72;;
24467;SDS011;12634;50.852;5.676;2023-07-31T03:48:03;7.53;;;3.53;;
24467;SDS011;12634;50.852;5.676;2023-07-31T03:50:31;7.88;;;3.35;;
24467;SDS011;12634;50.852;5.676;2023-07-31T03:52:58;7.55;;;3.47;;
24467;SDS011;12634;50.852;5.676;2023-07-31T03:55:25;9.65;;;3.55;;
24467;SDS011;12634;50.852;5.676;2023-07-31T03:57:52;7.13;;;3.22;;
24467;SDS011;12634;50.852;5.676;2023-07-31T04:00:21;7.75;;;3.22;;
24467;SDS011;12634;50.852;5.676;2023-07-31T04:02:48;7.60;;;3.28;;
24467;SDS011;12634;50.852;5.676;2023-07-31T04:05:15;6.88;;;3.33;;
24467;SDS011;12634;50.852;5.676;2023-07-31T04:07:42;9.07;;;3.28;;
24467;SDS011;12634;50.852;5.676;2023-07-31T04:10:10;8.30;;;3.45;;
24467;SDS011;12634;50.852;5.676;2023-07-31T04:12:37;6.80;;;2.97;;
24467;SDS011;12634;50.852;5.676;2023-07-31T04:15:04;8.07;;;3.60;;
24467;SDS011;12634;50.852;5.676;2023-07-31T04:17:34;6.30;;;2.88;;
24467;SDS011;12634;50.852;5.676;2023-07-31T04:20:01;5.88;;;2.83;;
24467;SDS011;12634;50.852;5.676;2023-07-31T04:22:28;6.43;;;3.40;;
24467;SDS011;12634;50.852;5.676;2023-07-31T04:24:56;7.13;;;2.80;;
24467;SDS011;12634;50.852;5.676;2023-07-31T04:27:23;7.55;;;2.90;;
24467;SDS011;12634;50.852;5.676;2023-07-31T04:29:50;6.18;;;2.80;;
24467;SDS011;12634;50.852;5.676;2023-07-31T04:32:17;7.95;;;2.97;;
24467;SDS011;12634;50.852;5.676;2023-07-31T04:34:47;5.55;;;2.60;;
24467;SDS011;12634;50.852;5.676;2023-07-31T04:37:14;6.20;;;2.53;;
24467;SDS011;12634;50.852;5.676;2023-07-31T04:39:41;5.28;;;2.80;;
24467;SDS011;12634;50.852;5.676;2023-07-31T04:42:09;6.72;;;3.25;;
24467;SDS011;12634;50.852;5.676;2023-07-31T04:44:36;6.78;;;3.22;;
24467;SDS011;12634;50.852;5.676;2023-07-31T04:47:03;5.88;;;2.97;;
24467;SDS011;12634;50.852;5.676;2023-07-31T04:49:31;6.72;;;3.15;;
24467;SDS011;12634;50.852;5.676;2023-07-31T04:51:59;7.18;;;2.85;;
24467;SDS011;12634;50.852;5.676;2023-07-31T04:54:27;8.38;;;2.72;;
24467;SDS011;12634;50.852;5.676;2023-07-31T04:56:54;7.32;;;3.33;;
24467;SDS011;12634;50.852;5.676;2023-07-31T04:59:21;6.82;;;2.63;;
24467;SDS011;12634;50.852;5.676;2023-07-31T05:01:48;5.13;;;2.65;;
24467;SDS011;12634;50.852;5.676;2023-07-31T05:04:15;6.18;;;2.55;;
24467;SDS011;12634;50.852;5.676;2023-07-31T05:06:43;6.72;;;2.80;;
24467;SDS011;12634;50.852;5.676;2023-07-31T05:09:11;7.43;;;2.78;;
24467;SDS011;12634;50.852;5.676;2023-07-31T05:11:39;7.72;;;3.28;;
24467;SDS011;12634;50.852;5.676;2023-07-31T05:14:08;6.93;;;3.05;;
24467;SDS011;12634;50.852;5.676;2023-07-31T05:16:35;7.25;;;3.58;;
24467;SDS011;12634;50.852;5.676;2023-07-31T05:19:02;6.70;;;3.33;;
24467;SDS011;12634;50.852;5.676;2023-07-31T05:21:29;6.57;;;3.20;;
24467;SDS011;12634;50.852;5.676;2023-07-31T05:23:57;9.52;;;3.25;;
24467;SDS011;12634;50.852;5.676;2023-07-31T05:26:25;9.20;;;3.35;;
24467;SDS011;12634;50.852;5.676;2023-07-31T05:28:52;5.10;;;3.05;;
24467;SDS011;12634;50.852;5.676;2023-07-31T05:31:20;9.43;;;3.88;;
24467;SDS011;12634;50.852;5.676;2023-07-31T05:33:47;6.75;;;3.20;;
24467;SDS011;12634;50.852;5.676;2023-07-31T05:36:16;8.05;;;3.35;;
24467;SDS011;12634;50.852;5.676;2023-07-31T05:38:43;6.05;;;2.85;;
24467;SDS011;12634;50.852;5.676;2023-07-31T05:41:11;7.38;;;2.80;;
24467;SDS011;12634;50.852;5.676;2023-07-31T05:43:39;7.80;;;3.05;;
24467;SDS011;12634;50.852;5.676;2023-07-31T05:46:08;8.98;;;3.20;;
24467;SDS011;12634;50.852;5.676;2023-07-31T05:48:37;7.25;;;3.20;;
24467;SDS011;12634;50.852;5.676;2023-07-31T05:51:04;8.23;;;3.13;;
24467;SDS011;12634;50.852;5.676;2023-07-31T05:53:32;8.30;;;3.28;;
24467;SDS011;12634;50.852;5.676;2023-07-31T05:56:01;5.40;;;2.70;;
24467;SDS011;12634;50.852;5.676;2023-07-31T05:58:28;7.22;;;3.30;;
24467;SDS011;12634;50.852;5.676;2023-07-31T06:00:57;5.38;;;2.88;;
24467;SDS011;12634;50.852;5.676;2023-07-31T06:03:24;5.05;;;2.35;;
24467;SDS011;12634;50.852;5.676;2023-07-31T06:05:51;9.32;;;3.35;;
24467;SDS011;12634;50.852;5.676;2023-07-31T06:08:18;6.63;;;2.83;;
24467;SDS011;12634;50.852;5.676;2023-07-31T06:10:45;6.25;;;2.63;;
24467;SDS011;12634;50.852;5.676;2023-07-31T06:13:13;6.45;;;2.80;;
24467;SDS011;12634;50.852;5.676;2023-07-31T06:15:40;7.90;;;2.55;;
24467;SDS011;12634;50.852;5.676;2023-07-31T06:18:09;5.72;;;2.80;;
24467;SDS011;12634;50.852;5.676;2023-07-31T06:20:36;7.18;;;2.50;;
24467;SDS011;12634;50.852;5.676;2023-07-31T06:23:05;8.07;;;2.88;;
24467;SDS011;12634;50.852;5.676;2023-07-31T06:25:33;5.85;;;3.15;;
24467;SDS011;12634;50.852;5.676;2023-07-31T06:28:00;8.15;;;2.97;;
24467;SDS011;12634;50.852;5.676;2023-07-31T06:30:27;7.45;;;2.92;;
24467;SDS011;12634;50.852;5.676;2023-07-31T06:32:54;5.85;;;2.80;;
24467;SDS011;12634;50.852;5.676;2023-07-31T06:35:23;8.50;;;3.00;;
24467;SDS011;12634;50.852;5.676;2023-07-31T06:37:50;8.07;;;2.22;;
24467;SDS011;12634;50.852;5.676;2023-07-31T06:40:17;7.57;;;2.58;;
24467;SDS011;12634;50.852;5.676;2023-07-31T06:42:45;6.28;;;2.80;;
24467;SDS011;12634;50.852;5.676;2023-07-31T06:45:12;8.02;;;3.55;;
24467;SDS011;12634;50.852;5.676;2023-07-31T06:47:39;8.32;;;3.22;;
24467;SDS011;12634;50.852;5.676;2023-07-31T06:50:07;5.78;;;2.83;;
24467;SDS011;12634;50.852;5.676;2023-07-31T06:52:36;8.63;;;2.95;;
24467;SDS011;12634;50.852;5.676;2023-07-31T06:55:04;6.65;;;2.70;;
24467;SDS011;12634;50.852;5.676;2023-07-31T06:57:43;5.15;;;3.22;;
24467;SDS011;12634;50.852;5.676;2023-07-31T07:00:11;6.35;;;2.97;;
24467;SDS011;12634;50.852;5.676;2023-07-31T07:02:39;7.93;;;3.05;;
24467;SDS011;12634;50.852;5.676;2023-07-31T07:05:06;6.72;;;3.03;;
24467;SDS011;12634;50.852;5.676;2023-07-31T07:07:35;7.47;;;3.08;;
24467;SDS011;12634;50.852;5.676;2023-07-31T07:10:03;7.05;;;2.70;;
24467;SDS011;12634;50.852;5.676;2023-07-31T07:12:31;8.70;;;3.13;;
24467;SDS011;12634;50.852;5.676;2023-07-31T07:14:59;7.90;;;2.95;;
24467;SDS011;12634;50.852;5.676;2023-07-31T07:17:27;7.15;;;2.63;;
24467;SDS011;12634;50.852;5.676;2023-07-31T07:19:56;6.65;;;3.20;;
24467;SDS011;12634;50.852;5.676;2023-07-31T07:22:24;7.93;;;3.33;;
24467;SDS011;12634;50.852;5.676;2023-07-31T07:24:53;5.63;;;2.70;;
24467;SDS011;12634;50.852;5.676;2023-07-31T07:27:20;6.78;;;3.33;;
24467;SDS011;12634;50.852;5.676;2023-07-31T07:29:49;6.93;;;3.00;;
24467;SDS011;12634;50.852;5.676;2023-07-31T07:32:17;6.18;;;2.67;;
24467;SDS011;12634;50.852;5.676;2023-07-31T07:34:45;5.70;;;2.83;;
24467;SDS011;12634;50.852;5.676;2023-07-31T07:37:13;6.40;;;2.95;;
24467;SDS011;12634;50.852;5.676;2023-07-31T07:39:41;7.38;;;2.78;;
24467;SDS011;12634;50.852;5.676;2023-07-31T07:42:09;7.82;;;2.88;;
24467;SDS011;12634;50.852;5.676;2023-07-31T07:44:37;7.47;;;2.85;;
24467;SDS011;12634;50.852;5.676;2023-07-31T07:47:04;5.75;;;2.30;;
24467;SDS011;12634;50.852;5.676;2023-07-31T07:49:32;8.85;;;3.85;;
24467;SDS011;12634;50.852;5.676;2023-07-31T07:52:00;6.55;;;3.33;;
24467;SDS011;12634;50.852;5.676;2023-07-31T07:54:27;5.53;;;2.53;;
24467;SDS011;12634;50.852;5.676;2023-07-31T07:56:54;5.97;;;3.35;;
24467;SDS011;12634;50.852;5.676;2023-07-31T07:59:23;7.28;;;2.88;;
24467;SDS011;12634;50.852;5.676;2023-07-31T08:01:50;7.55;;;2.95;;
24467;SDS011;12634;50.852;5.676;2023-07-31T08:04:17;6.57;;;2.53;;
24467;SDS011;12634;50.852;5.676;2023-07-31T08:06:45;7.15;;;2.83;;
24467;SDS011;12634;50.852;5.676;2023-07-31T08:09:12;6.07;;;2.63;;
24467;SDS011;12634;50.852;5.676;2023-07-31T08:11:39;5.53;;;2.92;;
24467;SDS011;12634;50.852;5.676;2023-07-31T08:14:06;5.32;;;2.65;;
24467;SDS011;12634;50.852;5.676;2023-07-31T08:16:35;6.55;;;2.60;;
24467;SDS011;12634;50.852;5.676;2023-07-31T08:19:02;5.00;;;2.50;;
24467;SDS011;12634;50.852;5.676;2023-07-31T08:21:29;4.80;;;2.47;;
24467;SDS011;12634;50.852;5.676;2023-07-31T08:23:57;7.30;;;2.88;;
24467;SDS011;12634;50.852;5.676;2023-07-31T08:26:24;6.43;;;2.80;;
24467;SDS011;12634;50.852;5.676;2023-07-31T08:28:52;6.18;;;2.88;;
24467;SDS011;12634;50.852;5.676;2023-07-31T08:31:19;5.32;;;2.33;;
24467;SDS011;12634;50.852;5.676;2023-07-31T08:33:47;7.47;;;2.63;;
24467;SDS011;12634;50.852;5.676;2023-07-31T08:36:15;4.40;;;2.17;;
24467;SDS011;12634;50.852;5.676;2023-07-31T08:38:42;8.05;;;2.42;;
24467;SDS011;12634;50.852;5.676;2023-07-31T08:41:09;6.53;;;2.88;;
24467;SDS011;12634;50.852;5.676;2023-07-31T08:43:38;10.85;;;2.95;;
24467;SDS011;12634;50.852;5.676;2023-07-31T08:46:05;5.72;;;2.58;;
24467;SDS011;12634;50.852;5.676;2023-07-31T08:48:33;6.82;;;2.90;;
24467;SDS011;12634;50.852;5.676;2023-07-31T08:51:05;4.10;;;2.20;;
24467;SDS011;12634;50.852;5.676;2023-07-31T08:53:32;3.30;;;2.05;;
24467;SDS011;12634;50.852;5.676;2023-07-31T08:56:00;7.25;;;2.95;;
24467;SDS011;12634;50.852;5.676;2023-07-31T08:58:27;5.97;;;2.53;;
24467;SDS011;12634;50.852;5.676;2023-07-31T09:00:57;6.45;;;2.88;;
24467;SDS011;12634;50.852;5.676;2023-07-31T09:03:27;5.53;;;2.83;;
24467;SDS011;12634;50.852;5.676;2023-07-31T09:05:57;9.50;;;3.25;;
24467;SDS011;12634;50.852;5.676;2023-07-31T09:08:26;5.80;;;2.33;;
24467;SDS011;12634;50.852;5.676;2023-07-31T09:10:58;8.45;;;2.85;;
24467;SDS011;12634;50.852;5.676;2023-07-31T09:13:28;7.07;;;3.17;;
24467;SDS011;12634;50.852;5.676;2023-07-31T09:15:57;4.05;;;1.70;;
24467;SDS011;12634;50.852;5.676;2023-07-31T09:18:24;5.68;;;2.78;;
24467;SDS011;12634;50.852;5.676;2023-07-31T09:21:00;7.45;;;2.80;;
24467;SDS011;12634;50.852;5.676;2023-07-31T09:23:41;7.63;;;3.30;;
24467;SDS011;12634;50.852;5.676;2023-07-31T09:26:09;5.57;;;2.90;;
24467;SDS011;12634;50.852;5.676;2023-07-31T09:28:36;6.13;;;2.83;;
24467;SDS011;12634;50.852;5.676;2023-07-31T09:31:04;5.10;;;2.97;;
24467;SDS011;12634;50.852;5.676;2023-07-31T09:33:31;5.72;;;2.90;;
24467;SDS011;12634;50.852;5.676;2023-07-31T09:36:00;5.72;;;2.80;;
24467;SDS011;12634;50.852;5.676;2023-07-31T09:38:27;6.60;;;2.58;;
24467;SDS011;12634;50.852;5.676;2023-07-31T09:40:55;7.47;;;2.70;;
24467;SDS011;12634;50.852;5.676;2023-07-31T09:43:25;5.38;;;2.15;;
24467;SDS011;12634;50.852;5.676;2023-07-31T09:45:54;4.40;;;2.22;;
24467;SDS011;12634;50.852;5.676;2023-07-31T09:48:23;3.70;;;1.98;;
24467;SDS011;12634;50.852;5.676;2023-07-31T09:50:53;5.80;;;2.05;;
24467;SDS011;12634;50.852;5.676;2023-07-31T09:53:22;4.05;;;2.05;;
24467;SDS011;12634;50.852;5.676;2023-07-31T09:55:57;3.50;;;1.85;;
24467;SDS011;12634;50.852;5.676;2023-07-31T09:58:25;3.22;;;1.90;;
24467;SDS011;12634;50.852;5.676;2023-07-31T10:00:55;4.07;;;1.95;;
24467;SDS011;12634;50.852;5.676;2023-07-31T10:03:24;3.58;;;1.58;;
24467;SDS011;12634;50.852;5.676;2023-07-31T10:05:53;4.28;;;1.63;;
24467;SDS011;12634;50.852;5.676;2023-07-31T10:08:23;4.18;;;1.65;;
24467;SDS011;12634;50.852;5.676;2023-07-31T10:10:55;2.63;;;1.40;;
24467;SDS011;12634;50.852;5.676;2023-07-31T10:13:28;2.97;;;1.40;;
24467;SDS011;12634;50.852;5.676;2023-07-31T10:15:58;3.92;;;1.30;;
24467;SDS011;12634;50.852;5.676;2023-07-31T10:18:26;2.10;;;1.20;;
24467;SDS011;12634;50.852;5.676;2023-07-31T10:20:54;2.40;;;1.20;;
24467;SDS011;12634;50.852;5.676;2023-07-31T10:23:22;2.70;;;1.50;;
24467;SDS011;12634;50.852;5.676;2023-07-31T10:25:51;3.08;;;1.27;;
24467;SDS011;12634;50.852;5.676;2023-07-31T10:28:21;4.00;;;1.35;;
24467;SDS011;12634;50.852;5.676;2023-07-31T10:30:51;2.28;;;1.25;;
24467;SDS011;12634;50.852;5.676;2023-07-31T10:33:19;2.25;;;0.98;;
24467;SDS011;12634;50.852;5.676;2023-07-31T10:35:47;2.38;;;1.10;;
24467;SDS011;12634;50.852;5.676;2023-07-31T10:38:14;3.03;;;1.38;;
24467;SDS011;12634;50.852;5.676;2023-07-31T10:40:42;2.58;;;1.30;;
24467;SDS011;12634;50.852;5.676;2023-07-31T10:43:12;3.00;;;1.35;;
24467;SDS011;12634;50.852;5.676;2023-07-31T10:45:52;3.58;;;1.48;;
24467;SDS011;12634;50.852;5.676;2023-07-31T10:48:20;3.55;;;1.48;;
24467;SDS011;12634;50.852;5.676;2023-07-31T10:50:48;4.45;;;1.73;;
24467;SDS011;12634;50.852;5.676;2023-07-31T10:53:23;2.55;;;1.48;;
24467;SDS011;12634;50.852;5.676;2023-07-31T10:55:51;2.75;;;1.40;;
24467;SDS011;12634;50.852;5.676;2023-07-31T10:58:19;2.83;;;1.30;;
24467;SDS011;12634;50.852;5.676;2023-07-31T11:00:48;3.72;;;1.75;;
24467;SDS011;12634;50.852;5.676;2023-07-31T11:03:16;2.88;;;1.42;;
24467;SDS011;12634;50.852;5.676;2023-07-31T11:05:49;4.18;;;1.80;;
24467;SDS011;12634;50.852;5.676;2023-07-31T11:08:19;3.67;;;1.80;;
24467;SDS011;12634;50.852;5.676;2023-07-31T11:10:49;4.50;;;2.25;;
24467;SDS011;12634;50.852;5.676;2023-07-31T11:13:17;4.55;;;2.05;;
24467;SDS011;12634;50.852;5.676;2023-07-31T11:15:44;4.40;;;2.20;;
24467;SDS011;12634;50.852;5.676;2023-07-31T11:18:13;3.88;;;2.03;;
24467;SDS011;12634;50.852;5.676;2023-07-31T11:20:42;6.25;;;2.95;;
24467;SDS011;12634;50.852;5.676;2023-07-31T11:23:09;3.17;;;2.13;;
24467;SDS011;12634;50.852;5.676;2023-07-31T11:25:37;4.68;;;2.53;;
24467;SDS011;12634;50.852;5.676;2023-07-31T11:28:07;4.72;;;2.53;;
24467;SDS011;12634;50.852;5.676;2023-07-31T11:30:36;3.97;;;2.38;;
24467;SDS011;12634;50.852;5.676;2023-07-31T11:33:04;6.18;;;3.08;;
24467;SDS011;12634;50.852;5.676;2023-07-31T11:35:34;4.30;;;2.10;;
24467;SDS011;12634;50.852;5.676;2023-07-31T11:38:02;3.58;;;2.20;;
24467;SDS011;12634;50.852;5.676;2023-07-31T11:40:30;4.88;;;2.58;;
24467;SDS011;12634;50.852;5.676;2023-07-31T11:42:58;5.78;;;2.58;;
24467;SDS011;12634;50.852;5.676;2023-07-31T11:45:30;4.32;;;2.83;;
24467;SDS011;12634;50.852;5.676;2023-07-31T11:47:57;5.32;;;3.05;;
24467;SDS011;12634;50.852;5.676;2023-07-31T11:50:25;3.88;;;2.28;;
24467;SDS011;12634;50.852;5.676;2023-07-31T11:52:56;5.40;;;2.63;;
24467;SDS011;12634;50.852;5.676;2023-07-31T11:55:25;5.28;;;2.63;;
24467;SDS011;12634;50.852;5.676;2023-07-31T11:57:54;4.75;;;2.33;;
24467;SDS011;12634;50.852;5.676;2023-07-31T12:00:23;6.05;;;2.78;;
24467;SDS011;12634;50.852;5.676;2023-07-31T12:02:51;6.63;;;3.13;;
24467;SDS011;12634;50.852;5.676;2023-07-31T12:05:19;4.93;;;2.90;;
24467;SDS011;12634;50.852;5.676;2023-07-31T12:07:48;5.60;;;2.80;;
24467;SDS011;12634;50.852;5.676;2023-07-31T12:10:27;5.43;;;2.90;;
24467;SDS011;12634;50.852;5.676;2023-07-31T12:13:05;5.97;;;2.92;;
24467;SDS011;12634;50.852;5.676;2023-07-31T12:15:39;5.15;;;2.72;;
24467;SDS011;12634;50.852;5.676;2023-07-31T12:18:08;5.50;;;2.80;;
24467;SDS011;12634;50.852;5.676;2023-07-31T12:20:40;5.80;;;2.88;;
24467;SDS011;12634;50.852;5.676;2023-07-31T12:23:13;7.00;;;2.92;;
24467;SDS011;12634;50.852;5.676;2023-07-31T12:25:42;9.15;;;3.17;;
24467;SDS011;12634;50.852;5.676;2023-07-31T12:28:10;6.00;;;2.80;;
24467;SDS011;12634;50.852;5.676;2023-07-31T12:30:40;7.03;;;2.88;;
24467;SDS011;12634;50.852;5.676;2023-07-31T12:33:12;19.42;;;5.07;;
24467;SDS011;12634;50.852;5.676;2023-07-31T12:35:41;20.60;;;5.57;;
24467;SDS011;12634;50.852;5.676;2023-07-31T12:38:10;5.88;;;2.47;;
24467;SDS011;12634;50.852;5.676;2023-07-31T12:40:38;4.22;;;2.25;;
24467;SDS011;12634;50.852;5.676;2023-07-31T12:43:08;7.65;;;2.85;;
24467;SDS011;12634;50.852;5.676;2023-07-31T12:45:35;4.40;;;2.17;;
24467;SDS011;12634;50.852;5.676;2023-07-31T12:48:02;12.05;;;3.30;;
24467;SDS011;12634;50.852;5.676;2023-07-31T12:50:30;7.55;;;2.30;;
24467;SDS011;12634;50.852;5.676;2023-07-31T12:52:57;13.63;;;3.47;;
24467;SDS011;12634;50.852;5.676;2023-07-31T12:55:25;18.27;;;5.43;;
24467;SDS011;12634;50.852;5.676;2023-07-31T12:57:52;6.97;;;2.92;;
24467;SDS011;12634;50.852;5.676;2023-07-31T13:00:20;4.80;;;2.75;;
24467;SDS011;12634;50.852;5.676;2023-07-31T13:02:48;4.20;;;2.22;;
24467;SDS011;12634;50.852;5.676;2023-07-31T13:05:15;3.15;;;2.17;;
24467;SDS011;12634;50.852;5.676;2023-07-31T13:07:42;4.00;;;2.35;;
24467;SDS011;12634;50.852;5.676;2023-07-31T13:10:09;5.95;;;2.40;;
24467;SDS011;12634;50.852;5.676;2023-07-31T13:12:37;4.47;;;1.95;;
24467;SDS011;12634;50.852;5.676;2023-07-31T13:15:04;4.47;;;2.67;;
24467;SDS011;12634;50.852;5.676;2023-07-31T13:17:34;5.63;;;2.60;;
24467;SDS011;12634;50.852;5.676;2023-07-31T13:20:03;4.43;;;2.38;;
24467;SDS011;12634;50.852;5.676;2023-07-31T13:22:30;3.67;;;2.10;;
24467;SDS011;12634;50.852;5.676;2023-07-31T13:24:58;5.95;;;2.25;;
24467;SDS011;12634;50.852;5.676;2023-07-31T13:27:25;5.38;;;2.70;;
24467;SDS011;12634;50.852;5.676;2023-07-31T13:29:52;7.35;;;2.50;;
24467;SDS011;12634;50.852;5.676;2023-07-31T13:32:21;6.90;;;2.80;;
24467;SDS011;12634;50.852;5.676;2023-07-31T13:34:50;7.78;;;2.90;;
24467;SDS011;12634;50.852;5.676;2023-07-31T13:37:17;5.10;;;2.78;;
24467;SDS011;12634;50.852;5.676;2023-07-31T13:39:44;5.88;;;3.20;;
24467;SDS011;12634;50.852;5.676;2023-07-31T13:42:12;4.43;;;2.80;;
24467;SDS011;12634;50.852;5.676;2023-07-31T13:44:39;5.55;;;2.92;;
24467;SDS011;12634;50.852;5.676;2023-07-31T13:47:06;6.05;;;3.20;;
24467;SDS011;12634;50.852;5.676;2023-07-31T13:49:35;3.95;;;2.22;;
24467;SDS011;12634;50.852;5.676;2023-07-31T13:52:05;5.18;;;2.80;;
24467;SDS011;12634;50.852;5.676;2023-07-31T13:54:33;6.65;;;2.83;;
24467;SDS011;12634;50.852;5.676;2023-07-31T13:57:00;4.32;;;2.72;;
24467;SDS011;12634;50.852;5.676;2023-07-31T13:59:27;7.07;;;3.30;;
24467;SDS011;12634;50.852;5.676;2023-07-31T14:01:54;4.72;;;3.33;;
24467;SDS011;12634;50.852;5.676;2023-07-31T14:04:21;5.38;;;3.00;;
24467;SDS011;12634;50.852;5.676;2023-07-31T14:06:49;7.20;;;3.10;;
24467;SDS011;12634;50.852;5.676;2023-07-31T14:09:17;6.15;;;3.25;;
24467;SDS011;12634;50.852;5.676;2023-07-31T14:11:44;7.05;;;3.15;;
24467;SDS011;12634;50.852;5.676;2023-07-31T14:14:11;6.50;;;3.00;;
24467;SDS011;12634;50.852;5.676;2023-07-31T14:16:39;6.53;;;3.20;;
24467;SDS011;12634;50.852;5.676;2023-07-31T14:19:06;5.60;;;3.08;;
24467;SDS011;12634;50.852;5.676;2023-07-31T14:21:33;6.22;;;3.15;;
24467;SDS011;12634;50.852;5.676;2023-07-31T14:24:01;6.97;;;3.17;;
24467;SDS011;12634;50.852;5.676;2023-07-31T14:26:30;4.95;;;2.75;;
24467;SDS011;12634;50.852;5.676;2023-07-31T14:28:57;6.72;;;3.33;;
24467;SDS011;12634;50.852;5.676;2023-07-31T14:31:24;6.10;;;3.40;;
24467;SDS011;12634;50.852;5.676;2023-07-31T14:33:51;6.10;;;2.67;;
24467;SDS011;12634;50.852;5.676;2023-07-31T14:36:18;6.72;;;2.88;;
24467;SDS011;12634;50.852;5.676;2023-07-31T14:38:46;6.05;;;3.25;;
24467;SDS011;12634;50.852;5.676;2023-07-31T14:41:13;6.80;;;2.90;;
24467;SDS011;12634;50.852;5.676;2023-07-31T14:43:41;7.28;;;3.42;;
24467;SDS011;12634;50.852;5.676;2023-07-31T14:46:08;8.05;;;3.42;;
24467;SDS011;12634;50.852;5.676;2023-07-31T14:48:36;6.72;;;3.17;;
24467;SDS011;12634;50.852;5.676;2023-07-31T14:51:03;7.45;;;3.40;;
24467;SDS011;12634;50.852;5.676;2023-07-31T14:53:30;7.00;;;3.45;;